Time;durP1;ratioP1;P1;durP2;ratioP2;P2;SDS_P1;SDS_P2;PMS_P1;PMS_P2;Temp;Humidity;BMP_temperature;BMP_pressure;BME280_temperature;BME280_humidity;BME280_pressure;Samples;Min_cycle;Max_cycle;Signal;HPM_P1;HPM_P2
2021/05/02 00:01:55;;;;;;;30.33;19.70;;;6.80;99.90;;;;;;5035951;28;20205;-76
2021/05/02 00:04:22;;;;;;;28.47;19.00;;;6.80;99.90;;;;;;5035601;28;20203;-76
2021/05/02 00:06:49;;;;;;;33.70;19.07;;;6.90;99.90;;;;;;5034855;28;20742;-76
2021/05/02 00:09:15;;;;;;;35.83;20.07;;;6.90;99.90;;;;;;5035705;28;20197;-76
2021/05/02 00:11:41;;;;;;;33.70;20.73;;;6.90;99.90;;;;;;5035474;28;20221;-76
2021/05/02 00:14:08;;;;;;;34.27;20.90;;;6.90;99.90;;;;;;5035397;28;20213;-76
2021/05/02 00:16:36;;;;;;;32.67;19.90;;;7.00;99.90;;;;;;5035495;28;20222;-75
2021/05/02 00:19:03;;;;;;;31.70;20.00;;;7.10;99.90;;;;;;5035361;28;20202;-76
2021/05/02 00:21:30;;;;;;;30.53;20.03;;;7.10;99.90;;;;;;5034676;28;20260;-76
2021/05/02 00:23:56;;;;;;;39.53;20.30;;;7.10;99.90;;;;;;5034921;28;20256;-76
2021/05/02 00:26:24;;;;;;;33.30;19.87;;;7.10;99.90;;;;;;5035475;28;20206;-76
2021/05/02 00:28:54;;;;;;;34.87;20.07;;;7.10;99.90;;;;;;5035207;28;20199;-76
2021/05/02 00:31:22;;;;;;;32.70;20.03;;;7.20;99.90;;;;;;5034986;28;20223;-76
2021/05/02 00:33:49;;;;;;;33.53;20.63;;;7.10;99.90;;;;;;5034495;28;20668;-75
2021/05/02 00:36:15;;;;;;;34.50;19.53;;;7.20;99.90;;;;;;5033462;28;20298;-76
2021/05/02 00:38:42;;;;;;;32.87;19.93;;;7.20;99.90;;;;;;5035196;28;20256;-76
2021/05/02 00:41:12;;;;;;;32.03;19.53;;;7.30;99.90;;;;;;5035153;28;20203;-76
2021/05/02 00:43:44;;;;;;;34.93;20.73;;;7.20;99.90;;;;;;5034812;28;20267;-76
2021/05/02 00:46:17;;;;;;;31.70;20.07;;;7.30;99.90;;;;;;5034694;28;20689;-76
2021/05/02 00:48:50;;;;;;;34.60;19.97;;;7.40;99.90;;;;;;5034725;28;20626;-75
2021/05/02 00:51:17;;;;;;;32.33;19.80;;;7.40;99.90;;;;;;5034578;28;20198;-75
2021/05/02 00:54:01;;;;;;;31.03;18.73;;;7.30;99.90;;;;;;5034278;28;20210;-75
2021/05/02 00:56:30;;;;;;;33.30;19.70;;;7.30;99.90;;;;;;5034632;28;20202;-76
2021/05/02 00:59:02;;;;;;;31.00;18.90;;;7.20;99.90;;;;;;5034220;28;20323;-76
2021/05/02 01:01:31;;;;;;;34.93;20.60;;;7.10;99.90;;;;;;5034659;28;20200;-76
2021/05/02 01:04:00;;;;;;;33.77;20.03;;;7.10;99.90;;;;;;5034174;28;20286;-76
2021/05/02 01:06:31;;;;;;;33.57;20.93;;;7.00;99.90;;;;;;5034270;28;20201;-76
2021/05/02 01:09:01;;;;;;;38.93;22.17;;;6.90;99.90;;;;;;5034347;28;20204;-76
2021/05/02 01:11:29;;;;;;;42.23;21.03;;;6.80;99.90;;;;;;5033778;28;20230;-76
2021/05/02 01:13:56;;;;;;;35.17;20.70;;;6.80;99.90;;;;;;5034198;28;20251;-76
2021/05/02 01:16:26;;;;;;;35.73;20.97;;;6.70;99.90;;;;;;5034156;28;20313;-76
2021/05/02 01:18:54;;;;;;;33.50;20.80;;;6.70;99.90;;;;;;5033787;28;20726;-76
2021/05/02 01:21:28;;;;;;;35.00;21.87;;;6.60;99.90;;;;;;5034028;28;20201;-76
2021/05/02 01:23:56;;;;;;;36.87;21.67;;;6.60;99.90;;;;;;5033938;28;20212;-76
2021/05/02 01:26:23;;;;;;;37.63;21.50;;;6.60;99.90;;;;;;5033262;28;20293;-76
2021/05/02 01:28:54;;;;;;;36.13;22.43;;;6.50;99.90;;;;;;5033857;28;20204;-76
2021/05/02 01:31:20;;;;;;;35.50;20.43;;;6.40;99.90;;;;;;5033796;28;20665;-75
2021/05/02 01:33:47;;;;;;;34.93;22.23;;;6.40;99.90;;;;;;5033925;28;20279;-76
2021/05/02 01:36:14;;;;;;;37.97;22.57;;;6.40;99.90;;;;;;5034211;28;20220;-76
2021/05/02 01:38:41;;;;;;;37.37;22.77;;;6.40;99.90;;;;;;5034073;28;20195;-76
2021/05/02 01:41:08;;;;;;;35.80;21.87;;;6.30;99.90;;;;;;5032922;28;20679;-76
2021/05/02 01:43:35;;;;;;;42.93;23.40;;;6.30;99.90;;;;;;5034035;28;20296;-76
2021/05/02 01:46:02;;;;;;;36.97;21.13;;;6.30;99.90;;;;;;5033772;28;20245;-75
2021/05/02 01:48:30;;;;;;;37.90;22.67;;;6.30;99.90;;;;;;5034344;28;20201;-76
2021/05/02 01:51:01;;;;;;;37.00;21.73;;;6.30;99.90;;;;;;5033617;28;20684;-76
2021/05/02 01:53:28;;;;;;;45.10;23.50;;;6.30;99.90;;;;;;5034227;28;20574;-76
2021/05/02 01:55:55;;;;;;;37.07;21.83;;;6.20;99.90;;;;;;5034187;28;20202;-76
2021/05/02 01:58:23;;;;;;;39.63;23.23;;;6.10;99.90;;;;;;5033017;28;20292;-76
2021/05/02 02:00:52;;;;;;;41.00;23.53;;;6.10;99.90;;;;;;5033850;28;20209;-76
2021/05/02 02:03:19;;;;;;;42.33;23.83;;;6.10;99.90;;;;;;5033952;28;20207;-76
2021/05/02 02:05:47;;;;;;;39.93;23.07;;;6.00;99.90;;;;;;5033939;28;20229;-76
2021/05/02 02:08:14;;;;;;;46.70;22.83;;;6.00;99.90;;;;;;5034023;28;20210;-75
2021/05/02 02:10:41;;;;;;;38.97;22.57;;;6.00;99.90;;;;;;5034320;28;20195;-75
2021/05/02 02:13:09;;;;;;;39.07;23.00;;;6.00;99.90;;;;;;5032949;28;20233;-76
2021/05/02 02:15:37;;;;;;;40.30;23.63;;;6.00;99.90;;;;;;5034124;28;20233;-76
2021/05/02 02:18:06;;;;;;;44.07;23.90;;;6.00;99.90;;;;;;5033966;28;20609;-76
2021/05/02 02:20:37;;;;;;;44.87;24.70;;;6.00;99.90;;;;;;5034102;28;20652;-76
2021/05/02 02:23:08;;;;;;;46.07;23.90;;;6.00;99.90;;;;;;5034050;28;20194;-75
2021/05/02 02:25:41;;;;;;;41.50;24.37;;;6.00;99.90;;;;;;5033814;28;20274;-76
2021/05/02 02:28:12;;;;;;;41.73;24.17;;;6.00;99.90;;;;;;5033144;28;20211;-77
2021/05/02 02:30:42;;;;;;;39.50;23.97;;;6.00;99.90;;;;;;5033062;28;20615;-76
2021/05/02 02:33:08;;;;;;;38.53;23.27;;;6.10;99.90;;;;;;5033346;28;20703;-75
2021/05/02 02:35:40;;;;;;;43.00;24.73;;;6.20;99.90;;;;;;5033875;28;20289;-76
2021/05/02 02:38:08;;;;;;;41.87;25.60;;;6.40;99.90;;;;;;5033656;28;20294;-76
2021/05/02 02:40:37;;;;;;;41.57;23.40;;;6.60;99.90;;;;;;5033549;28;20198;-76
2021/05/02 02:43:05;;;;;;;40.83;24.50;;;6.70;99.90;;;;;;5033591;28;20671;-77
2021/05/02 02:45:35;;;;;;;42.60;23.03;;;6.70;99.90;;;;;;5032764;28;20751;-76
2021/05/02 02:48:04;;;;;;;43.40;24.40;;;6.80;99.90;;;;;;5033662;28;20246;-76
2021/05/02 02:50:31;;;;;;;34.70;20.80;;;6.70;99.90;;;;;;5033157;28;20293;-75
2021/05/02 02:53:03;;;;;;;36.07;19.20;;;6.50;99.90;;;;;;5033453;28;20321;-75
2021/05/02 02:55:36;;;;;;;46.30;23.23;;;6.40;99.90;;;;;;5033260;28;20196;-75
2021/05/02 02:58:04;;;;;;;46.40;25.67;;;6.40;99.90;;;;;;5033472;28;20263;-75
2021/05/02 03:00:32;;;;;;;45.30;25.17;;;6.40;99.90;;;;;;5036129;28;20549;-75
2021/05/02 03:03:04;;;;;;;47.60;26.33;;;6.30;99.90;;;;;;5036354;28;20200;-75
2021/05/02 03:05:33;;;;;;;45.17;25.73;;;6.50;99.90;;;;;;5036751;28;20612;-75
2021/05/02 03:08:03;;;;;;;44.93;22.97;;;6.50;99.90;;;;;;5036613;28;20335;-75
2021/05/02 03:10:30;;;;;;;40.40;21.60;;;6.60;99.90;;;;;;5036607;28;20892;-75
2021/05/02 03:12:57;;;;;;;42.07;22.83;;;6.70;99.90;;;;;;5036533;28;20320;-75
2021/05/02 03:15:25;;;;;;;39.30;22.23;;;6.60;99.90;;;;;;5036624;28;20213;-75
2021/05/02 03:18:03;;;;;;;38.70;22.70;;;6.70;99.90;;;;;;5036022;28;20209;-75
2021/05/02 03:20:34;;;;;;;42.60;23.57;;;6.70;99.90;;;;;;5036099;28;20202;-75
2021/05/02 03:23:07;;;;;;;45.70;23.13;;;6.70;99.90;;;;;;5036472;28;20206;-75
2021/05/02 03:25:35;;;;;;;42.27;23.33;;;6.70;99.90;;;;;;5036933;28;20562;-75
2021/05/02 03:28:05;;;;;;;44.40;24.13;;;6.80;99.90;;;;;;5036900;28;20281;-75
2021/05/02 03:30:32;;;;;;;41.47;24.67;;;6.90;99.90;;;;;;5036622;28;20293;-75
2021/05/02 03:33:03;;;;;;;39.93;24.13;;;6.90;99.90;;;;;;5035397;28;20878;-76
2021/05/02 03:35:33;;;;;;;48.67;25.20;;;7.00;99.90;;;;;;5036054;28;21123;-76
2021/05/02 03:38:21;;;;;;;47.27;25.63;;;7.00;99.90;;;;;;5036149;28;20204;-75
2021/05/02 03:40:48;;;;;;;50.20;25.90;;;7.10;99.90;;;;;;5036172;28;20205;-76
2021/05/02 03:43:15;;;;;;;42.33;25.17;;;7.10;99.90;;;;;;5036282;28;20293;-75
2021/05/02 03:45:41;;;;;;;57.63;28.20;;;7.00;99.90;;;;;;5036161;28;20198;-75
2021/05/02 03:48:08;;;;;;;54.07;27.30;;;7.10;99.90;;;;;;5035898;28;20727;-76
2021/05/02 03:50:36;;;;;;;51.20;27.40;;;7.00;99.90;;;;;;5035926;28;20202;-75
2021/05/02 03:53:03;;;;;;;46.80;27.97;;;6.90;99.90;;;;;;5035332;28;20240;-75
2021/05/02 03:55:29;;;;;;;53.40;28.57;;;6.80;99.90;;;;;;5035979;28;20337;-76
2021/05/02 03:57:56;;;;;;;54.73;28.87;;;6.70;99.90;;;;;;5035831;28;20205;-75
2021/05/02 04:00:22;;;;;;;59.97;30.33;;;6.60;99.90;;;;;;5035709;28;20198;-75
2021/05/02 04:02:48;;;;;;;53.90;30.30;;;6.50;99.90;;;;;;5036014;28;20201;-75
2021/05/02 04:05:15;;;;;;;53.00;29.97;;;6.50;99.90;;;;;;5035797;28;20200;-75
2021/05/02 04:07:42;;;;;;;55.33;30.07;;;6.30;99.90;;;;;;5035112;28;20226;-75
2021/05/02 04:10:09;;;;;;;58.57;30.80;;;6.30;99.90;;;;;;5035144;28;20206;-75
2021/05/02 04:12:35;;;;;;;57.80;30.67;;;6.20;99.90;;;;;;5035365;28;20226;-75
2021/05/02 04:15:01;;;;;;;67.13;31.70;;;6.20;99.90;;;;;;5035805;28;20202;-75
2021/05/02 04:17:28;;;;;;;60.70;30.73;;;6.20;99.90;;;;;;5035852;28;20601;-75
2021/05/02 04:19:54;;;;;;;59.20;30.97;;;6.30;99.90;;;;;;5034914;28;20232;-76
2021/05/02 04:22:21;;;;;;;55.10;29.37;;;6.30;99.90;;;;;;5034772;28;20285;-76
2021/05/02 04:24:49;;;;;;;54.03;30.00;;;6.30;99.90;;;;;;5034834;28;20584;-76
2021/05/02 04:27:15;;;;;;;55.77;31.07;;;6.30;99.90;;;;;;5035244;28;20198;-75
2021/05/02 04:29:42;;;;;;;61.00;32.53;;;6.30;99.90;;;;;;5035113;28;20690;-76
2021/05/02 04:32:08;;;;;;;59.87;31.37;;;6.30;99.90;;;;;;5035139;28;20235;-76
2021/05/02 04:34:35;;;;;;;59.10;30.50;;;6.40;99.90;;;;;;5035074;28;20198;-76
2021/05/02 04:37:01;;;;;;;59.77;30.30;;;6.50;99.90;;;;;;5034377;28;20196;-76
2021/05/02 04:39:28;;;;;;;59.50;30.27;;;6.50;99.90;;;;;;5035017;28;20207;-76
2021/05/02 04:41:57;;;;;;;48.67;29.07;;;6.90;99.90;;;;;;5034743;28;20201;-76
2021/05/02 04:44:25;;;;;;;50.63;29.20;;;7.40;99.90;;;;;;5035047;28;20310;-76
2021/05/02 04:46:52;;;;;;;47.90;27.63;;;7.80;99.90;;;;;;5034802;28;20198;-76
2021/05/02 04:49:20;;;;;;;43.40;25.97;;;8.00;99.90;;;;;;5034447;28;20203;-76
2021/05/02 04:51:47;;;;;;;40.70;25.73;;;8.10;99.90;;;;;;5034102;28;20766;-76
2021/05/02 04:54:14;;;;;;;37.07;23.60;;;8.10;99.90;;;;;;5034710;28;20291;-76
2021/05/02 04:56:40;;;;;;;36.50;23.70;;;8.10;99.90;;;;;;5034658;28;20230;-76
2021/05/02 04:59:08;;;;;;;41.03;23.57;;;8.00;99.90;;;;;;5034611;28;20257;-75
2021/05/02 05:01:35;;;;;;;37.93;23.30;;;8.00;99.90;;;;;;5034920;28;20210;-76
2021/05/02 05:04:01;;;;;;;34.93;22.03;;;7.90;99.90;;;;;;5034903;28;20202;-75
2021/05/02 05:06:27;;;;;;;39.30;23.80;;;7.80;99.90;;;;;;5033980;28;20264;-76
2021/05/02 05:08:54;;;;;;;37.83;23.23;;;7.80;99.90;;;;;;5034767;28;20667;-75
2021/05/02 05:11:21;;;;;;;33.00;21.80;;;7.80;99.90;;;;;;5034467;28;20225;-76
2021/05/02 05:13:47;;;;;;;37.53;22.40;;;7.80;99.90;;;;;;5034460;28;20576;-76
2021/05/02 05:16:15;;;;;;;37.67;22.47;;;7.90;99.90;;;;;;5034244;28;20293;-75
2021/05/02 05:18:41;;;;;;;33.60;22.37;;;7.90;99.90;;;;;;5034382;28;20234;-76
2021/05/02 05:21:08;;;;;;;39.20;21.43;;;7.90;99.90;;;;;;5033872;28;20208;-76
2021/05/02 05:23:34;;;;;;;33.43;21.60;;;8.00;99.90;;;;;;5033701;28;20614;-76
2021/05/02 05:26:00;;;;;;;34.13;21.63;;;8.20;99.90;;;;;;5033481;28;20293;-76
2021/05/02 05:28:27;;;;;;;31.07;20.27;;;8.30;99.90;;;;;;5034212;28;20203;-76
2021/05/02 05:30:54;;;;;;;32.90;20.87;;;8.70;99.90;;;;;;5033959;28;20204;-76
2021/05/02 05:33:23;;;;;;;28.30;18.60;;;9.40;99.90;;;;;;5033970;28;20488;-75
2021/05/02 05:35:49;;;;;;;25.17;17.27;;;10.20;99.90;;;;;;5033312;28;20673;-76
2021/05/02 05:38:16;;;;;;;22.77;16.03;;;10.90;99.90;;;;;;5033797;28;20195;-76
2021/05/02 05:40:43;;;;;;;22.10;15.37;;;11.30;99.90;;;;;;5034234;28;20238;-75
2021/05/02 05:43:09;;;;;;;22.80;15.00;;;11.50;99.90;;;;;;5034439;28;20306;-76
2021/05/02 05:45:36;;;;;;;19.30;13.77;;;11.30;99.90;;;;;;5033780;28;20199;-76
2021/05/02 05:48:03;;;;;;;23.63;15.67;;;11.00;99.90;;;;;;5033940;28;20231;-76
2021/05/02 05:50:31;;;;;;;20.53;14.20;;;10.70;99.90;;;;;;5033324;28;20295;-75
2021/05/02 05:52:58;;;;;;;21.33;14.57;;;10.60;99.90;;;;;;5033680;28;20227;-76
2021/05/02 05:55:25;;;;;;;20.23;14.70;;;10.30;99.90;;;;;;5034108;28;20648;-76
2021/05/02 05:57:52;;;;;;;20.50;15.13;;;10.10;99.90;;;;;;5033754;28;20209;-75
2021/05/02 06:00:21;;;;;;;24.17;14.73;;;9.90;99.90;;;;;;5033703;28;20565;-75
2021/05/02 06:02:47;;;;;;;22.77;15.73;;;9.90;99.90;;;;;;5033628;28;20252;-75
2021/05/02 06:05:15;;;;;;;23.30;15.33;;;9.60;99.90;;;;;;5033139;28;20672;-76
2021/05/02 06:07:43;;;;;;;22.63;14.77;;;9.30;99.90;;;;;;5033573;28;20211;-76
2021/05/02 06:10:10;;;;;;;24.17;15.27;;;9.20;99.90;;;;;;5033667;28;20203;-75
2021/05/02 06:12:37;;;;;;;27.10;16.50;;;8.80;99.90;;;;;;5033544;28;20230;-75
2021/05/02 06:15:04;;;;;;;23.23;15.93;;;8.90;99.90;;;;;;5033575;28;20205;-75
2021/05/02 06:17:31;;;;;;;22.87;15.67;;;9.10;99.90;;;;;;5033673;28;20196;-76
2021/05/02 06:19:57;;;;;;;24.57;14.57;;;9.20;99.90;;;;;;5032854;28;20215;-75
2021/05/02 06:22:24;;;;;;;22.00;14.67;;;9.30;99.90;;;;;;5033779;28;20293;-75
2021/05/02 06:24:51;;;;;;;27.23;15.87;;;9.10;99.90;;;;;;5033547;28;20234;-76
2021/05/02 06:27:17;;;;;;;28.17;15.50;;;9.30;99.90;;;;;;5033414;28;20207;-75
2021/05/02 06:29:44;;;;;;;23.27;15.17;;;9.10;99.90;;;;;;5033493;28;20294;-75
2021/05/02 06:32:10;;;;;;;23.57;15.17;;;9.20;99.90;;;;;;5033257;28;20580;-75
2021/05/02 06:34:37;;;;;;;23.93;15.03;;;9.20;99.90;;;;;;5034142;28;20213;-76
2021/05/02 06:37:03;;;;;;;21.27;15.17;;;9.30;99.90;;;;;;5037264;28;20201;-76
2021/05/02 06:39:30;;;;;;;22.60;14.90;;;9.30;99.90;;;;;;5037182;28;20619;-75
2021/05/02 06:41:57;;;;;;;25.47;14.87;;;9.30;99.90;;;;;;5037240;28;20256;-76
2021/05/02 06:44:23;;;;;;;23.87;14.50;;;9.30;99.90;;;;;;5037306;28;20234;-76
2021/05/02 06:46:50;;;;;;;20.43;12.17;;;9.10;99.90;;;;;;5037031;28;20221;-75
2021/05/02 06:49:16;;;;;;;15.83;9.90;;;9.20;99.90;;;;;;5036306;28;20199;-75
2021/05/02 06:51:44;;;;;;;14.83;10.03;;;9.20;99.90;;;;;;5036923;28;20295;-75
2021/05/02 06:54:10;;;;;;;14.97;8.57;;;9.30;99.90;;;;;;5036618;28;20198;-75
2021/05/02 06:56:37;;;;;;;16.70;9.00;;;9.30;99.90;;;;;;5037087;28;20203;-75
2021/05/02 06:59:04;;;;;;;12.77;8.60;;;9.00;99.90;;;;;;5036711;28;20252;-75
2021/05/02 07:01:32;;;;;;;15.80;8.87;;;9.10;99.90;;;;;;5036699;28;20229;-75
2021/05/02 07:03:58;;;;;;;14.67;8.00;;;9.10;99.90;;;;;;5036071;28;20210;-75
2021/05/02 07:06:25;;;;;;;11.77;8.10;;;9.00;99.90;;;;;;5036746;28;20753;-75
2021/05/02 07:08:52;;;;;;;14.37;7.27;;;9.00;99.90;;;;;;5036263;28;20198;-75
2021/05/02 07:11:20;;;;;;;15.53;6.47;;;9.20;99.90;;;;;;5036611;28;20634;-75
2021/05/02 07:13:46;;;;;;;8.83;5.60;;;9.20;99.90;;;;;;5036378;28;20260;-75
2021/05/02 07:16:13;;;;;;;11.53;6.37;;;9.00;99.90;;;;;;5036400;28;20203;-74
2021/05/02 07:18:40;;;;;;;16.10;6.20;;;8.90;99.90;;;;;;5035873;28;20346;-76
2021/05/02 07:21:08;;;;;;;16.07;5.60;;;9.00;99.90;;;;;;5036675;28;20232;-75
2021/05/02 07:23:39;;;;;;;11.93;4.60;;;9.30;99.90;;;;;;5036259;28;20286;-75
2021/05/02 07:26:05;;;;;;;9.13;4.13;;;9.80;99.90;;;;;;5036488;28;20213;-75
2021/05/02 07:28:32;;;;;;;11.17;4.00;;;9.60;99.90;;;;;;5036322;28;20642;-75
2021/05/02 07:30:59;;;;;;;8.67;3.97;;;9.40;99.90;;;;;;5036240;28;20194;-75
2021/05/02 07:33:27;;;;;;;9.87;3.87;;;9.00;99.90;;;;;;5035527;28;20252;-75
2021/05/02 07:35:54;;;;;;;13.60;4.07;;;9.10;99.90;;;;;;5036082;28;20614;-75
2021/05/02 07:38:21;;;;;;;8.60;3.70;;;9.30;99.90;;;;;;5035894;28;20203;-75
2021/05/02 07:40:47;;;;;;;10.90;4.30;;;9.50;99.90;;;;;;5035879;28;20203;-75
2021/05/02 07:43:14;;;;;;;7.60;3.40;;;9.60;99.90;;;;;;5036109;28;20199;-75
2021/05/02 07:45:40;;;;;;;10.13;3.40;;;9.60;99.90;;;;;;5035548;28;20199;-75
2021/05/02 07:48:07;;;;;;;14.90;4.37;;;9.60;99.90;;;;;;5035224;28;20303;-75
2021/05/02 07:50:36;;;;;;;8.30;3.10;;;9.80;99.90;;;;;;5035600;28;20212;-76
2021/05/02 07:53:03;;;;;;;6.93;3.30;;;10.20;99.90;;;;;;5035863;28;20320;-75
2021/05/02 07:55:30;;;;;;;6.57;2.77;;;10.40;99.90;;;;;;5035719;28;20292;-75
2021/05/02 07:57:56;;;;;;;8.73;2.70;;;10.40;99.90;;;;;;5035677;28;20585;-75
2021/05/02 08:00:23;;;;;;;10.80;2.90;;;10.20;99.90;;;;;;5035588;28;20205;-75
2021/05/02 08:02:49;;;;;;;6.87;2.80;;;10.00;99.90;;;;;;5035341;28;20206;-75
2021/05/02 08:05:15;;;;;;;8.97;2.80;;;9.70;99.90;;;;;;5035660;28;20202;-75
2021/05/02 08:07:43;;;;;;;4.63;2.70;;;9.60;99.90;;;;;;5035572;28;20248;-75
2021/05/02 08:10:10;;;;;;;8.03;2.67;;;10.30;99.90;;;;;;5035425;28;20297;-75
2021/05/02 08:12:37;;;;;;;3.53;1.73;;;12.90;99.90;;;;;;5035204;28;20621;-76
2021/05/02 08:15:05;;;;;;;8.13;2.10;;;16.00;99.90;;;;;;5035489;28;20204;-76
2021/05/02 08:17:31;;;;;;;7.90;2.30;;;17.60;99.90;;;;;;5035035;28;20197;-75
2021/05/02 08:19:57;;;;;;;5.57;1.70;;;16.60;99.90;;;;;;5035409;28;20200;-75
2021/05/02 08:22:24;;;;;;;7.03;2.20;;;15.40;99.90;;;;;;5035341;28;20196;-75
2021/05/02 08:24:51;;;;;;;5.93;1.80;;;14.40;99.90;;;;;;5035237;28;20556;-75
2021/05/02 08:27:17;;;;;;;5.97;1.80;;;12.90;99.90;;;;;;5035522;28;20204;-75
2021/05/02 08:29:44;;;;;;;7.10;1.87;;;12.70;99.90;;;;;;5035454;28;20291;-75
2021/05/02 08:32:10;;;;;;;8.00;1.97;;;12.80;99.90;;;;;;5034296;28;20719;-75
2021/05/02 08:34:36;;;;;;;5.70;1.77;;;13.10;99.90;;;;;;5035155;28;20825;-76
2021/05/02 08:37:06;;;;;;;9.00;1.80;;;14.80;99.90;;;;;;5035078;28;20204;-75
2021/05/02 08:39:32;;;;;;;3.90;1.63;;;16.10;99.90;;;;;;5034919;28;20201;-75
2021/05/02 08:41:59;;;;;;;7.40;2.23;;;18.20;99.90;;;;;;5034454;28;20196;-75
2021/05/02 08:44:26;;;;;;;3.73;1.50;;;18.70;99.90;;;;;;5034723;28;20201;-76
2021/05/02 08:46:53;;;;;;;3.23;1.40;;;18.20;99.90;;;;;;5034683;28;20753;-76
2021/05/02 08:49:20;;;;;;;2.43;1.40;;;18.10;99.90;;;;;;5034682;28;20196;-75
2021/05/02 08:51:47;;;;;;;5.27;1.43;;;17.70;99.90;;;;;;5034629;28;20671;-75
2021/05/02 08:54:13;;;;;;;4.73;1.57;;;18.40;99.90;;;;;;5034528;28;20271;-76
2021/05/02 08:56:39;;;;;;;3.63;1.57;;;19.10;99.90;;;;;;5033948;28;20557;-76
2021/05/02 08:59:08;;;;;;;4.20;1.70;;;20.80;99.90;;;;;;5034429;28;20201;-75
2021/05/02 09:01:35;;;;;;;5.87;1.67;;;21.20;99.90;;;;;;5034386;28;20212;-76
2021/05/02 09:04:03;;;;;;;4.50;1.80;;;22.70;99.90;;;;;;5034064;28;20207;-76
2021/05/02 09:06:30;;;;;;;2.97;1.93;;;23.60;99.90;;;;;;5034433;28;20657;-76
2021/05/02 09:09:01;;;;;;;4.33;2.03;;;22.30;99.90;;;;;;5034399;28;20327;-76
2021/05/02 09:11:33;;;;;;;6.70;2.10;;;21.20;99.90;;;;;;5034446;28;20677;-76
2021/05/02 09:14:02;;;;;;;4.77;2.23;;;19.40;99.90;;;;;;5034350;28;20229;-75
2021/05/02 09:16:43;;;;;;;6.10;2.23;;;17.60;99.90;;;;;;5034260;28;20208;-76
2021/05/02 09:19:09;;;;;;;8.03;2.50;;;16.10;99.90;;;;;;5033683;28;20223;-75
2021/05/02 09:21:36;;;;;;;5.20;2.10;;;14.60;99.90;;;;;;5033942;28;20296;-75
2021/05/02 09:24:06;;;;;;;7.53;2.20;;;13.60;99.90;;;;;;5034370;28;20258;-76
2021/05/02 09:26:35;;;;;;;7.13;2.60;;;12.60;99.90;;;;;;5034032;28;20205;-75
2021/05/02 09:29:05;;;;;;;9.60;2.80;;;11.60;99.90;;;;;;5034151;28;20192;-75
2021/05/02 09:31:34;;;;;;;7.63;2.67;;;11.20;99.90;;;;;;5034136;28;20203;-75
2021/05/02 09:34:11;;;;;;;6.47;2.60;;;11.10;99.90;;;;;;5033165;28;20259;-75
2021/05/02 09:36:50;;;;;;;5.93;1.87;;;11.10;99.90;;;;;;5033629;28;20203;-75
2021/05/02 09:39:38;;;;;;;7.83;2.10;;;11.20;99.90;;;;;;5034138;28;20207;-75
2021/05/02 09:42:10;;;;;;;4.03;2.00;;;11.60;99.90;;;;;;5033968;28;20273;-75
2021/05/02 09:44:44;;;;;;;6.43;1.87;;;13.40;99.90;;;;;;5034002;28;20228;-75
2021/05/02 09:47:23;;;;;;;6.43;2.70;;;15.80;99.90;;;;;;5034146;28;20196;-76
2021/05/02 09:50:07;;;;;;;4.07;1.97;;;17.10;99.90;;;;;;5033683;28;20292;-76
2021/05/02 09:52:46;;;;;;;4.23;1.60;;;17.50;99.90;;;;;;5033822;28;20231;-76
2021/05/02 09:55:33;;;;;;;2.70;1.20;;;19.30;99.90;;;;;;5033840;28;20197;-76
2021/05/02 09:58:04;;;;;;;6.47;1.80;;;18.30;99.90;;;;;;5030275;28;20201;-76
2021/05/02 10:00:36;;;;;;;5.53;2.20;;;16.70;99.90;;;;;;5033201;28;20201;-76
2021/05/02 10:03:08;;;;;;;3.00;1.70;;;17.20;99.90;;;;;;5033226;28;20729;-76
2021/05/02 10:05:36;;;;;;;6.80;1.50;;;17.80;99.90;;;;;;5032732;28;20216;-83
2021/05/02 10:08:03;;;;;;;4.83;1.90;;;19.10;99.90;;;;;;5046247;28;20575;-79
2021/05/02 10:10:29;;;;;;;4.33;1.60;;;18.90;99.90;;;;;;5043420;28;20216;-83
2021/05/02 10:12:56;;;;;;;4.90;1.87;;;18.00;99.90;;;;;;5057225;28;20702;-82
2021/05/02 10:15:24;;;;;;;4.97;1.80;;;16.80;99.90;;;;;;5046857;28;20676;-81
2021/05/02 10:17:51;;;;;;;3.30;1.50;;;15.10;99.90;;;;;;5037054;28;20292;-81
2021/05/02 10:20:19;;;;;;;3.30;1.63;;;14.20;99.90;;;;;;5037384;28;20204;-81
2021/05/02 10:22:46;;;;;;;4.33;2.20;;;13.80;99.90;;;;;;5036959;28;20196;-80
2021/05/02 10:25:13;;;;;;;6.83;3.00;;;14.60;99.90;;;;;;5037044;28;20205;-80
2021/05/02 10:27:49;;;;;;;5.70;2.70;;;16.80;99.90;;;;;;5036772;28;20192;-80
2021/05/02 10:30:37;;;;;;;5.57;2.63;;;18.70;99.90;;;;;;5040646;28;20226;-80
2021/05/02 10:33:05;;;;;;;3.47;1.97;;;18.30;99.90;;;;;;5051209;28;20235;-80
2021/05/02 10:35:52;;;;;;;7.07;2.27;;;16.00;99.90;;;;;;5045299;28;20212;-77
2021/05/02 10:38:21;;;;;;;3.73;1.90;;;14.10;99.90;;;;;;5049144;28;20677;-79
2021/05/02 10:40:48;;;;;;;3.40;1.40;;;12.50;99.90;;;;;;5047664;28;20204;-79
2021/05/02 10:43:28;;;;;;;4.70;1.40;;;12.10;99.90;;;;;;5050176;28;20669;-79
2021/05/02 10:45:55;;;;;;;5.23;1.20;;;11.90;99.90;;;;;;5052322;28;20260;-78
2021/05/02 10:48:48;;;;;;;4.37;1.70;;;11.70;99.90;;;;;;5051351;28;20215;-79
2021/05/02 10:51:29;;;;;;;5.97;1.50;;;11.80;99.90;;;;;;5044911;28;20731;-78
2021/05/02 10:54:03;;;;;;;2.93;1.30;;;11.80;99.90;;;;;;5047898;28;20330;-78
2021/05/02 10:56:54;;;;;;;5.10;1.30;;;12.20;99.90;;;;;;5038296;28;20594;-80
2021/05/02 10:59:22;;;;;;;3.33;1.30;;;12.50;99.90;;;;;;5044335;28;20287;-79
2021/05/02 11:01:49;;;;;;;6.73;1.73;;;12.60;99.90;;;;;;5042534;28;20596;-80
2021/05/02 11:04:15;;;;;;;4.27;1.60;;;12.80;99.90;;;;;;5045457;28;20208;-80
2021/05/02 11:06:54;;;;;;;5.53;1.63;;;12.40;99.90;;;;;;5045523;28;20200;-80
2021/05/02 11:09:23;;;;;;;3.57;1.77;;;12.80;99.90;;;;;;5039984;28;20739;-80
2021/05/02 11:11:52;;;;;;;2.83;1.50;;;13.00;99.90;;;;;;5040611;28;20575;-80
2021/05/02 11:14:33;;;;;;;3.07;1.30;;;13.50;99.90;;;;;;5042526;28;20259;-81
2021/05/02 11:17:22;;;;;;;4.17;1.53;;;14.40;99.90;;;;;;5045129;28;20204;-81
2021/05/02 11:19:52;;;;;;;6.13;2.20;;;16.90;99.90;;;;;;5052630;28;20214;-81
2021/05/02 11:22:22;;;;;;;4.47;1.80;;;19.30;99.90;;;;;;5043614;28;20295;-80
2021/05/02 11:24:59;;;;;;;4.20;1.90;;;21.40;99.90;;;;;;5052379;28;20208;-81
2021/05/02 11:27:50;;;;;;;6.70;2.87;;;21.30;99.90;;;;;;5052603;28;20203;-83
2021/05/02 11:30:22;;;;;;;3.80;2.27;;;19.20;99.90;;;;;;5042953;28;20697;-82
2021/05/02 11:32:50;;;;;;;3.53;2.20;;;16.40;99.90;;;;;;5050075;28;20228;-81
2021/05/02 11:35:19;;;;;;;5.70;2.50;;;14.70;99.90;;;;;;5049335;28;20196;-82
2021/05/02 11:37:56;;;;;;;3.03;1.90;;;13.30;99.90;;;;;;5048152;28;20197;-81
2021/05/02 11:40:36;;;;;;;6.17;2.20;;;12.30;99.90;;;;;;5049476;28;20215;-82
2021/05/02 11:43:04;;;;;;;4.10;2.03;;;12.00;99.90;;;;;;5049221;28;20207;-81
2021/05/02 11:45:32;;;;;;;4.30;1.83;;;11.90;99.90;;;;;;5046786;28;20676;-82
2021/05/02 11:48:01;;;;;;;4.33;2.10;;;11.90;99.90;;;;;;5047369;28;20230;-81
2021/05/02 11:50:28;;;;;;;6.97;1.87;;;11.80;99.90;;;;;;5054515;28;20250;-83
2021/05/02 11:52:56;;;;;;;4.43;1.80;;;11.60;99.90;;;;;;5053458;28;20237;-81
2021/05/02 11:55:26;;;;;;;2.97;1.80;;;11.70;99.90;;;;;;5048494;28;20211;-83
2021/05/02 11:57:53;;;;;;;3.30;1.90;;;12.00;99.90;;;;;;5054302;28;20207;-81
2021/05/02 12:00:36;;;;;;;4.17;1.67;;;12.60;99.90;;;;;;5054104;28;20200;-81
2021/05/02 12:03:02;;;;;;;5.53;1.93;;;12.90;99.90;;;;;;5048921;28;20204;-82
2021/05/02 12:05:29;;;;;;;4.10;1.97;;;13.60;99.90;;;;;;5046552;28;20200;-82
2021/05/02 12:08:10;;;;;;;3.63;1.93;;;14.30;99.90;;;;;;5054369;28;20196;-82
2021/05/02 12:10:37;;;;;;;4.00;2.07;;;14.80;99.90;;;;;;5050366;28;20283;-82
2021/05/02 12:13:05;;;;;;;5.57;1.83;;;15.60;99.90;;;;;;5053922;28;20260;-80
2021/05/02 12:15:32;;;;;;;6.20;2.00;;;15.90;99.90;;;;;;5054106;28;20570;-82
2021/05/02 12:17:58;;;;;;;5.70;1.87;;;15.80;99.90;;;;;;5053046;28;20214;-81
2021/05/02 12:20:26;;;;;;;4.53;1.97;;;15.90;99.90;;;;;;5053893;28;20200;-81
2021/05/02 12:22:52;;;;;;;6.43;2.13;;;15.90;99.90;;;;;;5051742;28;20196;-80
2021/05/02 12:25:20;;;;;;;5.37;2.00;;;16.10;99.90;;;;;;5054254;28;20196;-83
2021/05/02 12:27:57;;;;;;;5.50;2.37;;;16.30;99.90;;;;;;5049029;28;20330;-82
2021/05/02 12:30:25;;;;;;;5.73;2.13;;;15.90;99.90;;;;;;5052629;28;21119;-83
2021/05/02 12:32:52;;;;;;;5.53;2.60;;;16.10;99.90;;;;;;5052883;28;20224;-83
2021/05/02 12:35:19;;;;;;;5.90;2.30;;;16.60;99.90;;;;;;5053323;28;20212;-80
2021/05/02 12:37:45;;;;;;;5.17;2.47;;;17.10;99.90;;;;;;5046828;28;20196;-82
2021/05/02 12:40:13;;;;;;;4.43;2.37;;;17.40;99.90;;;;;;5048263;28;20295;-81
2021/05/02 12:42:42;;;;;;;4.37;2.50;;;17.50;99.90;;;;;;5045315;28;20536;-81
2021/05/02 12:45:11;;;;;;;3.93;2.47;;;18.00;99.90;;;;;;5045907;28;20270;-82
2021/05/02 12:47:42;;;;;;;3.73;2.30;;;18.40;99.90;;;;;;5048849;28;20231;-81
2021/05/02 12:50:10;;;;;;;4.43;2.40;;;18.50;99.90;;;;;;5053508;28;20299;-81